createdAt,value
2022-07-25T00:02:01.227Z,3.15
2022-07-25T00:07:24.812Z,4.22
2022-07-25T00:12:47.696Z,2.90
2022-07-25T00:18:10.001Z,4.22
2022-07-25T00:23:32.496Z,5.07
2022-07-25T00:28:54.926Z,3.42
2022-07-25T00:34:17.425Z,2.85
2022-07-25T00:39:39.956Z,7.78
2022-07-25T00:45:02.510Z,2.15
2022-07-25T00:50:27.028Z,4.20
2022-07-25T00:55:49.496Z,2.28
2022-07-25T01:01:12.168Z,2.97
2022-07-25T01:06:35.064Z,2.15
2022-07-25T01:11:57.606Z,3.13
2022-07-25T01:17:20.096Z,5.22
2022-07-25T01:22:42.422Z,2.63
2022-07-25T01:28:04.977Z,3.20
2022-07-25T01:33:27.093Z,2.33
2022-07-25T01:38:49.595Z,2.88
2022-07-25T01:44:17.364Z,4.10
2022-07-25T01:49:40.315Z,2.72
2022-07-25T01:55:02.664Z,2.45
2022-07-25T02:00:25.091Z,2.28
2022-07-25T02:05:47.815Z,3.83
2022-07-25T02:11:10.324Z,1.73
2022-07-25T02:16:32.682Z,3.20
2022-07-25T02:21:55.529Z,2.60
2022-07-25T02:27:17.824Z,2.40
2022-07-25T02:32:40.542Z,3.75
2022-07-25T02:38:03.048Z,2.53
2022-07-25T02:43:25.703Z,2.00
2022-07-25T02:48:48.234Z,2.58
2022-07-25T02:54:10.469Z,4.28
2022-07-25T02:59:33.047Z,2.55
2022-07-25T03:04:55.735Z,5.05
2022-07-25T03:10:18.183Z,2.15
2022-07-25T03:15:40.485Z,3.45
2022-07-25T03:21:03.085Z,5.82
2022-07-25T03:26:25.579Z,3.03
2022-07-25T03:31:48.093Z,6.30
2022-07-25T03:37:10.574Z,3.00
2022-07-25T03:42:35.656Z,2.72
2022-07-25T03:47:58.363Z,2.65
2022-07-25T03:53:20.870Z,5.85
2022-07-25T03:58:43.077Z,5.07
2022-07-25T04:04:05.846Z,2.75
2022-07-25T04:09:28.199Z,3.53
2022-07-25T04:14:55.734Z,2.80
2022-07-25T04:20:17.886Z,2.80
2022-07-25T04:25:40.332Z,2.50
2022-07-25T04:31:02.697Z,2.80
2022-07-25T04:36:25.120Z,2.80
2022-07-25T04:41:47.740Z,2.70
2022-07-25T04:47:09.934Z,3.77
2022-07-25T04:52:32.528Z,4.65
2022-07-25T04:57:55.232Z,3.45
2022-07-25T05:03:17.745Z,5.30
2022-07-25T05:08:40.379Z,5.72
2022-07-25T05:14:03.023Z,3.55
2022-07-25T05:19:26.220Z,4.82
2022-07-25T05:24:48.814Z,5.55
2022-07-25T05:30:12.959Z,5.55
2022-07-25T05:35:35.087Z,4.35
2022-07-25T05:40:57.717Z,7.00
2022-07-25T05:46:20.165Z,8.82
2022-07-25T05:51:45.578Z,5.22
2022-07-25T05:57:08.023Z,3.30
2022-07-25T06:02:30.737Z,7.10
2022-07-25T06:07:53.066Z,4.25
2022-07-25T06:13:15.563Z,3.65
2022-07-25T06:18:38.010Z,3.13
2022-07-25T06:24:00.550Z,4.57
2022-07-25T06:29:22.883Z,3.67
2022-07-25T06:34:45.631Z,5.30
2022-07-25T06:40:09.208Z,3.95
2022-07-25T06:45:31.456Z,3.40
2022-07-25T06:50:54.502Z,4.22
2022-07-25T06:56:17.850Z,4.68
2022-07-25T07:01:40.487Z,4.00
2022-07-25T07:07:02.970Z,11.00
2022-07-25T07:12:25.135Z,4.57
2022-07-25T07:17:47.978Z,3.83
2022-07-25T07:23:10.597Z,5.05
2022-07-25T07:28:32.992Z,5.00
2022-07-25T07:33:55.997Z,8.77
2022-07-25T07:39:18.262Z,9.63
2022-07-25T07:44:40.762Z,6.20
2022-07-25T07:50:03.514Z,7.05
2022-07-25T07:55:45.361Z,6.53
2022-07-25T08:01:07.773Z,5.07
2022-07-25T08:06:30.243Z,9.10
2022-07-25T08:11:53.150Z,5.40
2022-07-25T08:17:15.545Z,8.77
2022-07-25T08:22:41.237Z,6.70
2022-07-25T08:28:06.446Z,7.05
2022-07-25T08:33:28.969Z,6.30
2022-07-25T08:38:58.173Z,6.13
2022-07-25T08:44:21.638Z,4.65
2022-07-25T08:49:44.009Z,6.70
2022-07-25T08:55:09.597Z,7.07
2022-07-25T09:00:32.394Z,4.90
2022-07-25T09:05:55.512Z,7.70
2022-07-25T09:11:37.356Z,6.63
2022-07-25T09:17:06.996Z,5.22
2022-07-25T09:22:45.382Z,5.80
2022-07-25T09:28:25.458Z,13.15
2022-07-25T09:33:59.508Z,8.27
2022-07-25T09:39:21.841Z,5.88
2022-07-25T09:44:45.173Z,8.68
2022-07-25T09:50:08.225Z,6.28
2022-07-25T09:55:31.593Z,7.32
2022-07-25T10:00:58.269Z,7.15
2022-07-25T10:06:29.628Z,8.20
2022-07-25T10:12:05.822Z,6.47
2022-07-25T10:17:28.415Z,8.95
2022-07-25T10:22:58.560Z,15.55
2022-07-25T10:28:20.974Z,8.45
2022-07-25T10:33:43.708Z,8.50
2022-07-25T10:39:09.787Z,9.68
2022-07-25T10:44:47.394Z,7.90
2022-07-25T10:50:25.603Z,7.95
2022-07-25T10:56:06.281Z,8.20
2022-07-25T11:01:34.048Z,8.75
2022-07-25T11:06:57.008Z,13.35
2022-07-25T11:12:19.660Z,7.65
2022-07-25T11:17:50.794Z,7.50
2022-07-25T11:23:21.817Z,7.82
2022-07-25T11:28:47.343Z,7.82
2022-07-25T11:34:09.606Z,8.18
2022-07-25T11:39:37.473Z,8.00
2022-07-25T11:45:00.856Z,10.85
2022-07-25T11:50:30.474Z,8.13
2022-07-25T11:55:52.998Z,8.30
2022-07-25T12:01:15.810Z,7.90
2022-07-25T12:06:38.260Z,10.50
2022-07-25T12:12:04.590Z,10.70
2022-07-25T12:17:26.984Z,11.35
2022-07-25T12:22:52.033Z,9.32
2022-07-25T12:28:14.682Z,8.88
2022-07-25T12:33:37.797Z,10.05
2022-07-25T12:39:00.425Z,8.00
2022-07-25T12:44:22.652Z,10.93
2022-07-25T12:49:45.137Z,9.80
2022-07-25T12:55:10.072Z,11.80
2022-07-25T13:00:32.659Z,7.82
2022-07-25T13:05:55.336Z,8.45
2022-07-25T13:11:18.009Z,7.97
2022-07-25T13:16:40.839Z,8.32
2022-07-25T13:22:03.699Z,7.55
2022-07-25T13:27:26.047Z,7.30
2022-07-25T13:32:48.459Z,9.23
2022-07-25T13:38:13.635Z,7.65
2022-07-25T13:43:35.836Z,7.50
2022-07-25T13:48:58.283Z,9.35
2022-07-25T13:54:21.398Z,7.63
2022-07-25T13:59:43.568Z,7.00
2022-07-25T14:05:06.244Z,8.35
2022-07-25T14:10:28.523Z,10.43
2022-07-25T14:15:50.852Z,9.13
2022-07-25T14:21:13.342Z,6.97
2022-07-25T14:26:35.574Z,7.07
2022-07-25T14:31:58.311Z,8.82
2022-07-25T14:37:22.365Z,8.85
2022-07-25T14:42:45.273Z,6.80
2022-07-25T14:48:07.592Z,6.47
2022-07-25T14:53:29.904Z,6.60
2022-07-25T14:58:52.448Z,6.75
2022-07-25T15:04:14.929Z,9.40
2022-07-25T15:09:37.832Z,6.97
2022-07-25T15:15:00.067Z,7.50
2022-07-25T15:20:22.728Z,8.02
2022-07-25T15:26:04.606Z,9.02
2022-07-25T15:31:28.085Z,7.22
2022-07-25T15:36:50.475Z,8.43
2022-07-25T15:42:12.714Z,7.43
2022-07-25T15:47:34.919Z,7.97
2022-07-25T15:52:57.582Z,9.00
2022-07-25T15:58:20.105Z,10.43
2022-07-25T16:03:42.889Z,7.28
2022-07-25T16:09:05.784Z,9.20
2022-07-25T16:14:28.570Z,8.32
2022-07-25T16:19:50.848Z,9.95
2022-07-25T16:25:13.512Z,9.77
2022-07-25T16:30:35.995Z,13.55
2022-07-25T16:35:58.429Z,10.60
2022-07-25T16:41:21.001Z,11.05
2022-07-25T16:46:43.603Z,13.38
2022-07-25T16:52:06.701Z,14.07
2022-07-25T16:57:28.987Z,14.65
2022-07-25T17:02:51.941Z,17.38
2022-07-25T17:08:14.625Z,14.25
2022-07-25T17:13:37.048Z,18.73
2022-07-25T17:18:59.423Z,16.33
2022-07-25T17:24:21.596Z,22.95
2022-07-25T17:29:43.995Z,20.67
2022-07-25T17:35:06.704Z,10.48
2022-07-25T17:40:29.033Z,10.93
2022-07-25T17:45:51.313Z,22.25
2022-07-25T17:51:13.910Z,11.93
2022-07-25T17:56:36.742Z,9.60
2022-07-25T18:01:59.274Z,7.50
2022-07-25T18:07:21.791Z,7.75
2022-07-25T18:12:44.900Z,15.27
2022-07-25T18:18:10.474Z,7.60
2022-07-25T18:23:34.846Z,5.35
2022-07-25T18:28:57.225Z,4.65
2022-07-25T18:34:19.777Z,7.07
2022-07-25T18:39:42.466Z,9.10
2022-07-25T18:45:05.284Z,7.00
2022-07-25T18:50:27.905Z,9.32
2022-07-25T18:55:53.180Z,9.38
2022-07-25T19:01:15.742Z,4.47
2022-07-25T19:06:38.076Z,8.57
2022-07-25T19:12:01.326Z,9.27
2022-07-25T19:17:25.595Z,5.60
2022-07-25T19:22:48.291Z,6.65
2022-07-25T19:28:10.906Z,3.83
2022-07-25T19:33:35.815Z,7.25
2022-07-25T19:38:59.151Z,9.60
2022-07-25T19:44:21.892Z,13.27
2022-07-25T19:49:44.274Z,12.77
2022-07-25T19:55:06.974Z,11.82
2022-07-25T20:00:29.438Z,10.05
2022-07-25T20:05:52.196Z,12.50
2022-07-25T20:11:15.722Z,11.93
2022-07-25T20:16:39.500Z,12.35
2022-07-25T20:22:02.005Z,12.05
2022-07-25T20:27:24.729Z,13.75
2022-07-25T20:32:47.777Z,7.70
2022-07-25T20:38:10.427Z,8.27
2022-07-25T20:43:33.422Z,10.02
2022-07-25T20:48:55.721Z,10.20
2022-07-25T20:54:18.190Z,11.02
2022-07-25T20:59:40.769Z,9.32
2022-07-25T21:05:03.930Z,6.95
2022-07-25T21:10:26.672Z,7.15
2022-07-25T21:15:49.283Z,10.10
2022-07-25T21:21:13.697Z,8.35
2022-07-25T21:26:37.305Z,10.40
2022-07-25T21:31:59.733Z,6.88
2022-07-25T21:37:22.136Z,7.97
2022-07-25T21:42:44.623Z,10.40
2022-07-25T21:48:06.951Z,10.43
2022-07-25T21:53:29.579Z,10.90
2022-07-25T21:58:51.864Z,10.52
2022-07-25T22:04:14.237Z,9.75
2022-07-25T22:09:36.894Z,10.48
2022-07-25T22:14:59.555Z,12.85
2022-07-25T22:20:22.238Z,10.90
2022-07-25T22:25:44.529Z,11.20
2022-07-25T22:31:07.264Z,12.85
2022-07-25T22:36:29.983Z,10.32
2022-07-25T22:41:52.436Z,10.80
2022-07-25T22:47:14.804Z,11.63
2022-07-25T22:52:37.433Z,8.30
2022-07-25T22:58:00.233Z,7.55
2022-07-25T23:03:22.938Z,8.93
2022-07-25T23:08:45.998Z,8.68
2022-07-25T23:14:08.418Z,11.85
2022-07-25T23:19:30.977Z,11.95
2022-07-25T23:24:54.079Z,11.23
2022-07-25T23:30:17.115Z,10.52
2022-07-25T23:47:39.578Z,13.40
2022-07-25T23:53:02.965Z,13.82
2022-07-25T23:58:25.575Z,15.23
